Terminal Aerodrome Forecast
Issued by NWS

Home | Current Version | Previous Version | Text Only | Print | Product List | Glossary On
Versions: 1 2 3 4 5 6 7 8 9 10 11 12
009
FTUS43 KIWX 261121
TAFSBN
TAF
KSBN 261121Z 2612/2712 17010KT P6SM BKN130
     FM261800 19014G25KT P6SM VCTS BKN070CB
     FM270000 17010KT P6SM VCTS OVC035CB
     FM270600 16012G20KT P6SM BKN070=

USA.gov is the U.S. government's official web portal to all federal, state and local government web resources and services.